D/T METAR WX W/DIR W/SPE G/SPE TEMP DEWP
6/06/20 11:50 EGXU 061050Z AUTO 33017KT 9999 FEW026/// BKN050/// 12/08 Q0991 RERA NNW (330°) 19.6mph 12°C 8°C
6/06/20 10:50 EGXU 060950Z AUTO 30020KT 9999 -RA FEW026/// BKN038/// 11/07 Q0990 -RA WNW (300°) 23.0mph 11°C 7°C
6/06/20 09:50 EGXU 060850Z AUTO 31019KT 9999 BKN037/// SCT070/// 12/06 Q0989 NW (310°) 21.9mph 12°C 6°C
6/06/20 08:50 EGXU 060750Z AUTO 30017G27KT 9999 BKN046/// 12/06 Q0989 WNW (300°) 19.6mph 31.1mph 12°C 6°C
6/06/20 07:50 EGXU 060650Z AUTO 29011KT 9999 FEW032/// 12/08 Q0989 WNW (290°) 12.7mph 12°C 8°C
6/06/20 06:50 EGXU 060550Z AUTO 26008KT 9999 BKN050/// 09/07 Q0989 RERA W (260°) 9.2mph 9°C 7°C
6/06/20 05:50 EGXU 060450Z AUTO 26009KT 9999 -RA BKN032/// BKN046/// 08/07 Q0989 -RA W (260°) 10.4mph 8°C 7°C
6/06/20 04:50 EGXU 060350Z AUTO 27010KT 8000 RA OVC034/// 08/06 Q0989 RA W (270°) 11.5mph 8°C 6°C
6/06/20 03:50 EGXU 060250Z AUTO 27010KT 9000 RA BKN037/// 08/06 Q0989 RA W (270°) 11.5mph 8°C 6°C
6/06/20 02:50 EGXU 060150Z AUTO 28010KT 9999 RA SCT025/// BKN031/// 08/06 Q0990 RA W (280°) 11.5mph 8°C 6°C
6/06/20 01:50 EGXU 060050Z AUTO 27013KT 9999 BKN050/// 09/04 Q0990 W (270°) 15.0mph 9°C 4°C
6/06/20 00:50 EGXU 052350Z AUTO 26017KT 9999 BKN080/// 09/04 Q0990 W (260°) 19.6mph 9°C 4°C
5/06/20 23:50 EGXU 052250Z AUTO 26017KT 9999 SCT110/// 08/03 Q0991 W (260°) 19.6mph 8°C 3°C
5/06/20 22:50 EGXU 052150Z AUTO 26015KT 9999 BKN200/// 09/03 Q0992 W (260°) 17.3mph 9°C 3°C
5/06/20 21:50 EGXU 052050Z AUTO 26012KT 9999 NCD 09/04 Q0992 W (260°) 13.8mph 9°C 4°C
5/06/20 20:50 EGXU 051950Z AUTO 26011KT 9999 NCD 10/04 Q0992 W (260°) 12.7mph 10°C 4°C
5/06/20 19:50 EGXU 051850Z AUTO 28014KT 9999 BKN070/// 12/04 Q0992 RERA W (280°) 16.1mph 12°C 4°C
5/06/20 18:50 EGXU 051750Z AUTO 27018G29KT 9999 BKN050/// 11/03 Q0992 RERA W (270°) 20.7mph 33.4mph 11°C 3°C
5/06/20 17:50 EGXU 051650Z AUTO 32005KT 9999 -RA BKN043/// 11/05 Q0992 -RA NW (320°) 5.8mph 11°C 5°C
5/06/20 16:50 EGXU 051550Z AUTO 31017KT 9999 BKN050/// 11/03 Q0993 NW (310°) 19.6mph 11°C 3°C
5/06/20 15:50 EGXU 051450Z AUTO 28006KT 9999 BKN050/// SCT120/// 12/06 Q0993 RERA W (280°) 6.9mph 12°C 6°C
5/06/20 14:50 EGXU 051350Z AUTO 30012KT 9999 FEW044/// SCT050/// 14/04 Q0993 WNW (300°) 13.8mph 14°C 4°C
5/06/20 13:50 EGXU 051250Z AUTO 29015KT 9999 FEW050/// BKN080/// 12/04 Q0994 WNW (290°) 17.3mph 12°C 4°C
5/06/20 12:50 EGXU 051150Z AUTO 31018KT 9999 FEW038/// BKN070/// 12/06 Q0994 RERA NW (310°) 20.7mph 12°C 6°C
5/06/20 11:50 EGXU 051050Z AUTO 29011KT 9999 -RA SCT039/// SCT060/// 11/04 Q0994 -RA WNW (290°) 12.7mph 11°C 4°C
5/06/20 10:50 EGXU 050950Z AUTO 34012KT 9999 FEW036/// 13/04 Q0994 NNW (340°) 13.8mph 13°C 4°C
5/06/20 09:50 EGXU 050850Z AUTO 32012KT 9999 SCT029/// BKN090/// 10/04 Q0994 NW (320°) 13.8mph 10°C 4°C
5/06/20 08:50 EGXU 050750Z AUTO 31010KT 9999 FEW024/// SCT120/// 10/06 Q0994 NW (310°) 11.5mph 10°C 6°C
5/06/20 07:50 EGXU 050650Z AUTO 32009KT 9999 SCT100/// 09/06 Q0994 NW (320°) 10.4mph 9°C 6°C
5/06/20 06:50 EGXU 050550Z AUTO 33008KT 9999 FEW050/// SCT070/// 08/06 Q0994 NNW (330°) 9.2mph 8°C 6°C
5/06/20 05:50 EGXU 050450Z AUTO 33005KT 9999 FEW038/// BKN046/// 08/07 Q0994 RERA NNW (330°) 5.8mph 8°C 7°C
5/06/20 04:50 EGXU 050350Z AUTO 34008KT 9999 -RA BKN036/// BKN047/// 08/07 Q0995 -RA NNW (340°) 9.2mph 8°C 7°C
5/06/20 03:50 EGXU 050250Z AUTO 34007KT 9999 -RA FEW024/// BKN044/// 08/07 Q0995 -RA NNW (340°) 8.1mph 8°C 7°C
5/06/20 02:50 EGXU 050150Z AUTO 36007KT 9999 -DZ BKN012/// SCT034/// 08/07 Q0995 -DZ N (360°) 8.1mph 8°C 7°C
5/06/20 01:50 EGXU 050050Z AUTO 03007KT 7000 RA FEW004/// BKN008/// 08/08 Q0995 RA NNE (30°) 8.1mph 8°C 8°C
5/06/20 00:50 EGXU 042350Z AUTO 07006KT 3200 -DZ SCT003/// BKN025/// 09/08 Q0995 -DZ ENE (70°) 6.9mph 9°C 8°C
4/06/20 23:50 EGXU 042250Z AUTO 07005KT 6000 -RA SCT004/// BKN009/// 09/08 Q0996 -RA ENE (70°) 5.8mph 9°C 8°C
4/06/20 22:50 EGXU 042150Z AUTO 24001KT 7000 -RADZ FEW005/// BKN029/// BKN048/// 10/09 Q0997 -RA -DZ WSW (240°) 1.2mph 10°C 9°C
4/06/20 21:50 EGXU 042050Z AUTO 00000KT 7000 RA SCT028/// BKN044/// 10/09 Q0997 RA N (0°) 10°C 9°C
4/06/20 20:50 EGXU 041950Z AUTO 25004KT 7000 -RA BKN040/// 10/09 Q0998 -RA WSW (250°) 4.6mph 10°C 9°C
4/06/20 19:50 EGXU 041850Z AUTO 25003KT 8000 RA SCT008/// BKN049/// 11/09 Q0998 RA WSW (250°) 3.5mph 11°C 9°C
4/06/20 18:50 EGXU 041750Z AUTO 17005KT 9000 -RADZ BKN048/// 11/08 Q0999 -RA -DZ S (170°) 5.8mph 11°C 8°C
4/06/20 17:50 EGXU 041650Z AUTO 13006KT 9000 RA SCT025/// BKN050/// 12/08 Q0999 RA SE (130°) 6.9mph 12°C 8°C
4/06/20 16:50 EGXU 041550Z AUTO 21006KT 9999 FEW028/// SCT032/// BKN046/// 15/07 Q0999 RERA SSW (210°) 6.9mph 15°C 7°C
4/06/20 15:50 EGXU 041450Z AUTO 24006KT 9999 FEW033/// BKN050/// 15/06 Q1000 RERA WSW (240°) 6.9mph 15°C 6°C
4/06/20 14:50 EGXU 041350Z AUTO 24003KT 9999 SCT033/// BKN080/// 14/05 Q1001 WSW (240°) 3.5mph 14°C 5°C
4/06/20 13:50 EGXU 041250Z AUTO 28004KT 9999 FEW046/// BKN100/// 14/05 Q1001 W (280°) 4.6mph 14°C 5°C
4/06/20 12:50 EGXU 041150Z AUTO 27004KT 9999 BKN033/// BKN047/// 11/05 Q1002 W (270°) 4.6mph 11°C 5°C
4/06/20 11:50 EGXU 041050Z AUTO 27005KT 9999 OVC035/// 10/06 Q1003 RERA W (270°) 5.8mph 10°C 6°C
4/06/20 10:50 EGXU 040950Z AUTO 27004KT 9999 -RA FEW031/// BKN036/// 10/06 Q1004 -RA W (270°) 4.6mph 10°C 6°C
4/06/20 09:50 EGXU 040850Z AUTO 30006KT 9999 -RADZ BKN040/// BKN050/// 10/06 Q1004 -RA -DZ WNW (300°) 6.9mph 10°C 6°C
4/06/20 08:50 EGXU 040750Z AUTO 32006KT 9999 BKN070/// BKN120/// 10/06 Q1004 NW (320°) 6.9mph 10°C 6°C
4/06/20 07:50 EGXU 040650Z AUTO 31006KT 9999 FEW060/// BKN120/// 09/06 Q1005 NW (310°) 6.9mph 9°C 6°C
4/06/20 06:50 EGXU 040550Z AUTO 32005KT 9999 SCT050/// OVC130/// 08/06 Q1006 NW (320°) 5.8mph 8°C 6°C
4/06/20 05:50 EGXU 040450Z AUTO 31005KT 9999 SCT050/// OVC140/// 08/05 Q1006 NW (310°) 5.8mph 8°C 5°C
4/06/20 04:50 EGXU 040350Z AUTO 30005KT 9999 BKN050/// BKN160/// 08/06 Q1007 WNW (300°) 5.8mph 8°C 6°C
4/06/20 03:50 EGXU 040250Z AUTO 32007KT 9999 SCT060/// BKN160/// 08/07 Q1007 NW (320°) 8.1mph 8°C 7°C
4/06/20 02:50 EGXU 040150Z AUTO 31007KT 9999 FEW020/// BKN060/// 09/07 Q1008 NW (310°) 8.1mph 9°C 7°C
4/06/20 01:50 EGXU 040050Z AUTO 34008KT 9999 FEW019/// SCT022/// BKN060/// 09/08 Q1008 NNW (340°) 9.2mph 9°C 8°C
4/06/20 00:50 EGXU 032350Z AUTO 34009KT 9999 FEW018/// BKN025/// BKN060/// 09/08 Q1009 RERA NNW (340°) 10.4mph 9°C 8°C
3/06/20 23:50 EGXU 032250Z AUTO 34011KT 9000 -RA FEW021/// BKN050/// 09/09 Q1010 -RA NNW (340°) 12.7mph 9°C 9°C
3/06/20 22:50 EGXU 032150Z AUTO 34009KT 9000 -DZ FEW008/// BKN016/// 10/09 Q1010 -DZ NNW (340°) 10.4mph 10°C 9°C
3/06/20 21:50 EGXU 032050Z AUTO 34007KT 9999 SCT031/// 10/07 Q1010 NNW (340°) 8.1mph 10°C 7°C
3/06/20 20:50 EGXU 031950Z AUTO 36010KT 9999 NCD 11/06 Q1011 N (360°) 11.5mph 11°C 6°C
3/06/20 19:50 EGXU 031850Z AUTO 01012KT 9999 SCT050/// 12/06 Q1011 N (10°) 13.8mph 12°C 6°C
3/06/20 18:50 EGXU 031750Z AUTO 36013KT 9999 BKN050/// 12/07 Q1011 N (360°) 15.0mph 12°C 7°C
3/06/20 17:50 EGXU 031650Z AUTO 01014KT 9999 SCT020/// BKN029/// 12/07 Q1011 N (10°) 16.1mph 12°C 7°C
3/06/20 16:50 EGXU 031550Z AUTO 36015KT 9999 BKN016/// BKN036/// 11/08 Q1012 N (360°) 17.3mph 11°C 8°C
3/06/20 15:50 EGXU 031450Z AUTO 35014KT 9999 BKN016/// 11/08 Q1012 N (350°) 16.1mph 11°C 8°C
3/06/20 14:50 EGXU 031350Z AUTO 35014KT 9999 OVC015/// 11/09 Q1012 RERA N (350°) 16.1mph 11°C 9°C
3/06/20 13:50 EGXU 031250Z AUTO 35014KT 9999 -RA BKN015/// BKN025/// 11/10 Q1012 -RA N (350°) 16.1mph 11°C 10°C
3/06/20 12:50 EGXU 031150Z AUTO 36013KT 9999 BKN015/// BKN023/// 12/10 Q1012 RERA N (360°) 15.0mph 12°C 10°C
3/06/20 11:50 EGXU 031050Z AUTO 01013KT 9999 BKN017/// SCT027/// 12/10 Q1012 RERA N (10°) 15.0mph 12°C 10°C
3/06/20 09:50 EGXU 030850Z AUTO 36008KT 5000 RA BKN012/// 12/11 Q1012 RA N (360°) 9.2mph 12°C 11°C
3/06/20 08:50 EGXU 030750Z AUTO 33004KT 7000 RA BKN013/// 12/11 Q1012 RA NNW (330°) 4.6mph 12°C 11°C
3/06/20 07:50 EGXU 030650Z AUTO 36006KT 9999 -RA BKN025/// 12/11 Q1012 -RA N (360°) 6.9mph 12°C 11°C
3/06/20 06:50 EGXU 030550Z AUTO 36007KT 9999 -RADZ FEW017/// BKN022/// 13/11 Q1012 -RA -DZ N (360°) 8.1mph 13°C 11°C
3/06/20 05:50 EGXU 030450Z AUTO 33005KT 8000 -RA SCT017/// BKN045/// 13/11 Q1012 -RA NNW (330°) 5.8mph 13°C 11°C
3/06/20 04:50 EGXU 030350Z AUTO 01007KT 9999 OVC038/// 13/09 Q1011 RERA N (10°) 8.1mph 13°C 9°C
3/06/20 03:50 EGXU 030250Z AUTO 34003KT 9999 BKN036/// BKN060/// 14/10 Q1012 NNW (340°) 3.5mph 14°C 10°C
3/06/20 02:50 EGXU 030150Z AUTO 01004KT 9999 SCT060/// BKN110/// 13/10 Q1012 N (10°) 4.6mph 13°C 10°C
3/06/20 01:50 EGXU 030050Z AUTO 33002KT 9999 OVC070/// 14/09 Q1013 NNW (330°) 2.3mph 14°C 9°C
3/06/20 00:50 EGXU 022350Z AUTO 06004KT 9999 OVC070/// 14/08 Q1013 RERA ENE (60°) 4.6mph 14°C 8°C
2/06/20 23:50 EGXU 022250Z AUTO 07005KT 9999 OVC060/// 16/08 Q1014 RERA ENE (70°) 5.8mph 16°C 8°C
2/06/20 22:50 EGXU 022150Z AUTO 03003KT 9999 OVC060/// 17/08 Q1014 NNE (30°) 3.5mph 17°C 8°C
2/06/20 21:50 EGXU 022050Z AUTO 07003KT 9999 OVC060/// 18/07 Q1014 ENE (70°) 3.5mph 18°C 7°C
2/06/20 20:50 EGXU 021950Z AUTO 09004KT 9999 OVC070/// 19/08 Q1014 E (90°) 4.6mph 19°C 8°C
2/06/20 19:50 EGXU 021850Z AUTO 10006KT 9999 BKN080/// 20/09 Q1015 E (100°) 6.9mph 20°C 9°C
2/06/20 18:50 EGXU 021750Z AUTO 09008KT 9999 FEW080/// SCT140/// 21/08 Q1015 E (90°) 9.2mph 21°C 8°C
2/06/20 17:50 EGXU 021650Z AUTO 08010KT 9999 SCT140/// 22/08 Q1015 E (80°) 11.5mph 22°C 8°C
2/06/20 16:50 EGXU 021550Z AUTO 34004KT 9999 FEW160/// 24/02 Q1016 NNW (340°) 4.6mph 24°C 2°C
2/06/20 15:50 EGXU 021450Z AUTO 32005KT 9999 SCT160/// 23/05 Q1017 NW (320°) 5.8mph 23°C 5°C
2/06/20 14:50 EGXU 021350Z AUTO 11004KT 9999 SCT160/// 23/06 Q1018 ESE (110°) 4.6mph 23°C 6°C
2/06/20 13:50 EGXU 021250Z AUTO 27004KT 9999 NCD 22/05 Q1018 W (270°) 4.6mph 22°C 5°C
2/06/20 12:50 EGXU 021150Z AUTO 29004KT 9999 NCD 22/06 Q1019 WNW (290°) 4.6mph 22°C 6°C
2/06/20 11:50 EGXU 021050Z AUTO 36004KT 9999 NCD 21/07 Q1020 N (360°) 4.6mph 21°C 7°C